createdAt,value
2022-11-25T00:01:04.285Z,2.83
2022-11-25T00:03:30.747Z,3.13
2022-11-25T00:05:57.279Z,2.70
2022-11-25T00:08:23.628Z,2.97
2022-11-25T00:10:50.005Z,2.92
2022-11-25T00:13:16.389Z,3.08
2022-11-25T00:15:42.833Z,3.42
2022-11-25T00:18:09.213Z,2.70
2022-11-25T00:20:37.049Z,3.50
2022-11-25T00:23:04.129Z,3.33
2022-11-25T00:25:30.908Z,2.60
2022-11-25T00:27:59.706Z,3.33
2022-11-25T00:30:26.041Z,2.85
2022-11-25T00:32:53.511Z,2.92
2022-11-25T00:35:21.357Z,2.55
2022-11-25T00:37:49.431Z,4.10
2022-11-25T00:40:17.402Z,3.60
2022-11-25T00:45:29.136Z,3.53
2022-11-25T00:47:55.563Z,2.85
2022-11-25T00:50:22.892Z,2.92
2022-11-25T00:52:49.728Z,3.00
2022-11-25T00:55:16.098Z,3.50
2022-11-25T00:57:42.882Z,3.30
2022-11-25T01:00:10.412Z,3.28
2022-11-25T01:02:36.791Z,3.83
2022-11-25T01:05:03.486Z,3.47
2022-11-25T01:07:30.346Z,3.38
2022-11-25T01:09:57.289Z,3.10
2022-11-25T01:12:24.316Z,4.13
2022-11-25T01:14:51.216Z,2.93
2022-11-25T01:17:17.562Z,3.28
2022-11-25T01:19:43.928Z,3.80
2022-11-25T01:22:11.011Z,3.42
2022-11-25T01:24:37.635Z,3.63
2022-11-25T01:27:04.284Z,4.10
2022-11-25T01:29:30.667Z,3.95
2022-11-25T01:31:57.839Z,3.33
2022-11-25T01:34:25.434Z,3.67
2022-11-25T01:36:51.808Z,3.60
2022-11-25T01:39:20.545Z,3.67
2022-11-25T01:41:47.401Z,3.50
2022-11-25T01:44:19.289Z,2.85
2022-11-25T01:47:06.695Z,3.83
2022-11-25T01:49:34.888Z,4.03
2022-11-25T01:52:03.058Z,3.30
2022-11-25T01:54:31.538Z,2.90
2022-11-25T01:57:10.874Z,2.92
2022-11-25T01:59:39.246Z,3.65
2022-11-25T02:02:05.676Z,3.38
2022-11-25T02:04:34.327Z,3.78
2022-11-25T02:07:04.259Z,3.03
2022-11-25T02:09:30.901Z,2.75
2022-11-25T02:11:57.617Z,3.30
2022-11-25T02:14:25.374Z,3.60
2022-11-25T02:16:52.416Z,3.15
2022-11-25T02:19:23.828Z,3.10
2022-11-25T02:21:54.563Z,2.85
2022-11-25T02:24:25.689Z,2.47
2022-11-25T02:26:52.226Z,3.00
2022-11-25T02:29:18.642Z,3.00
2022-11-25T02:31:45.895Z,3.35
2022-11-25T02:34:12.836Z,3.30
2022-11-25T02:36:39.196Z,3.30
2022-11-25T02:39:05.799Z,2.97
2022-11-25T02:41:32.103Z,3.28
2022-11-25T02:43:58.588Z,3.25
2022-11-25T02:46:25.936Z,2.88
2022-11-25T02:49:09.989Z,3.28
2022-11-25T02:51:38.151Z,2.90
2022-11-25T02:54:05.077Z,3.05
2022-11-25T02:56:32.460Z,2.80
2022-11-25T02:58:58.813Z,3.10
2022-11-25T03:01:25.273Z,2.78
2022-11-25T03:03:51.688Z,2.63
2022-11-25T03:06:18.071Z,2.95
2022-11-25T03:08:44.525Z,3.17
2022-11-25T03:11:11.069Z,3.38
2022-11-25T03:13:37.568Z,3.10
2022-11-25T03:16:04.096Z,1.83
2022-11-25T03:18:30.501Z,4.10
2022-11-25T03:20:57.046Z,3.15
2022-11-25T03:23:23.714Z,3.42
2022-11-25T03:25:50.153Z,3.42
2022-11-25T03:28:16.575Z,3.55
2022-11-25T03:30:43.280Z,2.88
2022-11-25T03:33:09.773Z,3.03
2022-11-25T03:35:36.179Z,2.70
2022-11-25T03:38:02.525Z,3.25
2022-11-25T03:40:28.851Z,3.72
2022-11-25T03:42:55.288Z,2.78
2022-11-25T03:45:21.646Z,2.78
2022-11-25T03:47:49.155Z,3.53
2022-11-25T03:50:16.355Z,3.40
2022-11-25T03:52:42.703Z,3.25
2022-11-25T03:55:09.201Z,3.60
2022-11-25T03:57:35.632Z,3.10
2022-11-25T04:00:02.447Z,3.40
2022-11-25T04:02:28.885Z,3.28
2022-11-25T04:04:55.676Z,2.97
2022-11-25T04:07:22.076Z,2.85
2022-11-25T04:09:48.475Z,3.15
2022-11-25T04:12:33.562Z,3.05
2022-11-25T04:14:59.960Z,2.83
2022-11-25T04:17:26.318Z,3.28
2022-11-25T04:19:52.648Z,3.08
2022-11-25T04:22:19.029Z,2.85
2022-11-25T04:24:45.370Z,3.22
2022-11-25T04:27:11.725Z,2.42
2022-11-25T04:29:38.110Z,2.78
2022-11-25T04:32:04.638Z,3.40
2022-11-25T04:34:30.976Z,3.72
2022-11-25T04:36:57.792Z,2.40
2022-11-25T04:39:24.098Z,2.95
2022-11-25T04:41:50.457Z,3.10
2022-11-25T04:44:17.967Z,2.88
2022-11-25T04:46:44.450Z,2.35
2022-11-25T04:49:11.048Z,2.47
2022-11-25T04:51:38.342Z,2.72
2022-11-25T04:54:04.770Z,2.35
2022-11-25T04:56:31.192Z,3.05
2022-11-25T04:59:16.269Z,2.83
2022-11-25T05:01:42.721Z,3.30
2022-11-25T05:04:09.935Z,2.53
2022-11-25T05:06:36.257Z,3.28
2022-11-25T05:09:04.569Z,2.50
2022-11-25T05:11:30.887Z,3.45
2022-11-25T05:13:57.271Z,3.20
2022-11-25T05:16:23.740Z,2.65
2022-11-25T05:18:50.110Z,2.72
2022-11-25T05:21:16.479Z,2.35
2022-11-25T05:23:42.836Z,2.47
2022-11-25T05:26:09.194Z,2.80
2022-11-25T05:28:35.532Z,2.63
2022-11-25T05:31:01.993Z,3.03
2022-11-25T05:33:28.434Z,2.50
2022-11-25T05:35:58.617Z,3.03
2022-11-25T05:38:24.979Z,2.33
2022-11-25T05:40:51.472Z,2.30
2022-11-25T05:43:17.951Z,2.78
2022-11-25T05:45:45.463Z,2.63
2022-11-25T05:48:11.963Z,2.63
2022-11-25T05:50:40.448Z,2.88
2022-11-25T05:53:08.826Z,2.47
2022-11-25T05:58:03.031Z,2.53
2022-11-25T06:00:29.509Z,2.42
2022-11-25T06:02:56.131Z,3.08
2022-11-25T06:05:22.997Z,2.42
2022-11-25T06:07:50.037Z,2.97
2022-11-25T06:10:17.091Z,2.43
2022-11-25T06:12:43.625Z,2.23
2022-11-25T06:15:10.465Z,2.30
2022-11-25T06:17:37.513Z,2.53
2022-11-25T06:20:04.993Z,2.47
2022-11-25T06:22:31.309Z,2.58
2022-11-25T06:25:03.245Z,2.40
2022-11-25T06:27:50.039Z,2.22
2022-11-25T06:30:17.245Z,2.50
2022-11-25T06:32:43.700Z,2.25
2022-11-25T06:35:10.207Z,2.53
2022-11-25T06:37:36.861Z,2.83
2022-11-25T06:40:03.617Z,3.50
2022-11-25T06:42:31.608Z,2.92
2022-11-25T06:44:58.034Z,2.83
2022-11-25T06:47:24.545Z,2.90
2022-11-25T06:49:50.921Z,3.08
2022-11-25T06:52:17.414Z,2.70
2022-11-25T06:54:43.846Z,2.92
2022-11-25T06:57:10.805Z,2.67
2022-11-25T06:59:37.478Z,3.03
2022-11-25T07:02:04.404Z,2.95
2022-11-25T07:04:31.317Z,3.53
2022-11-25T07:06:57.690Z,3.45
2022-11-25T07:09:24.932Z,2.53
2022-11-25T07:11:52.873Z,2.70
2022-11-25T07:16:46.060Z,3.00
2022-11-25T07:19:13.239Z,2.78
2022-11-25T07:21:39.656Z,5.23
2022-11-25T07:24:07.027Z,2.65
2022-11-25T07:26:34.536Z,2.90
2022-11-25T07:29:13.900Z,3.58
2022-11-25T07:31:49.771Z,3.38
2022-11-25T07:34:23.224Z,2.53
2022-11-25T07:36:51.055Z,3.65
2022-11-25T07:41:43.816Z,2.53
2022-11-25T07:44:12.166Z,2.65
2022-11-25T07:46:40.725Z,3.28
2022-11-25T07:51:37.224Z,2.03
2022-11-25T07:54:05.535Z,2.33
2022-11-25T07:56:33.388Z,2.80
2022-11-25T07:59:00.086Z,3.30
2022-11-25T08:01:26.694Z,2.10
2022-11-25T08:03:53.305Z,3.28
2022-11-25T08:06:21.031Z,2.70
2022-11-25T08:08:48.609Z,2.85
2022-11-25T08:11:17.902Z,3.08
2022-11-25T08:13:44.663Z,3.97
2022-11-25T08:16:12.976Z,5.40
2022-11-25T08:18:39.711Z,4.75
2022-11-25T08:21:06.972Z,4.63
2022-11-25T08:23:33.863Z,4.65
2022-11-25T08:26:08.459Z,4.03
2022-11-25T08:28:36.417Z,3.88
2022-11-25T08:31:08.403Z,2.65
2022-11-25T08:33:34.844Z,3.17
2022-11-25T08:36:01.248Z,2.50
2022-11-25T08:38:28.214Z,2.55
2022-11-25T08:40:54.893Z,2.47
2022-11-25T08:43:25.068Z,2.05
2022-11-25T08:45:56.827Z,2.50
2022-11-25T08:48:23.218Z,1.80
2022-11-25T08:50:51.509Z,1.40
2022-11-25T08:53:18.668Z,1.70
2022-11-25T08:55:45.592Z,1.80
2022-11-25T08:58:13.501Z,1.88
2022-11-25T09:00:40.937Z,1.45
2022-11-25T09:03:07.423Z,1.35
2022-11-25T09:05:36.119Z,1.60
2022-11-25T09:08:03.597Z,1.40
2022-11-25T09:10:30.511Z,1.70
2022-11-25T09:12:56.973Z,1.47
2022-11-25T09:15:23.501Z,1.85
2022-11-25T09:17:57.167Z,2.38
2022-11-25T09:20:24.817Z,6.70
2022-11-25T09:22:52.643Z,5.95
2022-11-25T09:25:21.655Z,4.53
2022-11-25T09:27:48.413Z,4.43
2022-11-25T09:30:15.952Z,4.40
2022-11-25T09:32:43.420Z,4.38
2022-11-25T09:35:09.880Z,4.63
2022-11-25T09:37:37.343Z,2.22
2022-11-25T09:42:52.990Z,2.42
2022-11-25T09:45:37.914Z,2.20
2022-11-25T09:48:13.389Z,2.42
2022-11-25T09:51:02.848Z,2.10
2022-11-25T09:53:42.083Z,1.70
2022-11-25T09:56:15.033Z,2.45
2022-11-25T09:58:56.638Z,1.90
2022-11-25T10:01:24.954Z,2.90
2022-11-25T10:03:51.482Z,2.72
2022-11-25T10:06:20.315Z,1.80
2022-11-25T10:08:51.558Z,3.13
2022-11-25T10:11:20.749Z,2.00
2022-11-25T10:13:54.946Z,1.95
2022-11-25T10:16:29.580Z,2.08
2022-11-25T10:19:06.162Z,1.48
2022-11-25T10:21:32.561Z,1.73
2022-11-25T10:23:58.948Z,2.15
2022-11-25T10:26:29.426Z,2.33
2022-11-25T10:29:03.677Z,1.73
2022-11-25T10:31:34.560Z,2.00
2022-11-25T10:34:01.638Z,1.88
2022-11-25T10:36:33.348Z,2.03
2022-11-25T10:39:01.737Z,1.58
2022-11-25T10:41:32.581Z,1.52
2022-11-25T10:43:59.199Z,1.95
2022-11-25T10:46:49.695Z,1.97
2022-11-25T10:49:19.890Z,1.90
2022-11-25T10:51:47.794Z,2.88
2022-11-25T10:54:26.814Z,3.35
2022-11-25T10:56:58.381Z,1.58
2022-11-25T10:59:27.712Z,2.13
2022-11-25T11:02:05.848Z,2.13
2022-11-25T11:04:33.263Z,1.98
2022-11-25T11:07:07.480Z,1.98
2022-11-25T11:09:39.145Z,2.28
2022-11-25T11:12:25.340Z,1.80
2022-11-25T11:14:52.827Z,1.58
2022-11-25T11:17:37.529Z,1.90
2022-11-25T11:20:06.932Z,1.88
2022-11-25T11:22:34.514Z,1.88
2022-11-25T11:25:08.349Z,1.80
2022-11-25T11:27:38.470Z,2.10
2022-11-25T11:30:09.169Z,1.88
2022-11-25T11:32:35.820Z,1.92
2022-11-25T11:35:17.691Z,2.00
2022-11-25T11:37:45.688Z,2.00
2022-11-25T11:40:25.438Z,2.10
2022-11-25T11:43:00.247Z,2.47
2022-11-25T11:45:29.805Z,3.33
2022-11-25T11:48:07.561Z,2.67
2022-11-25T11:50:40.201Z,2.65
2022-11-25T11:53:11.574Z,2.67
2022-11-25T11:56:11.866Z,2.63
2022-11-25T11:58:46.869Z,2.03
2022-11-25T12:01:22.683Z,2.00
2022-11-25T12:04:08.594Z,2.40
2022-11-25T12:06:36.897Z,2.40
2022-11-25T12:09:08.271Z,2.08
2022-11-25T12:11:36.742Z,2.03
2022-11-25T12:14:09.934Z,2.45
2022-11-25T12:16:36.315Z,2.97
2022-11-25T12:19:02.667Z,2.77
2022-11-25T12:21:47.762Z,2.70
2022-11-25T12:24:33.137Z,2.70
2022-11-25T12:27:21.287Z,2.35
2022-11-25T12:30:07.163Z,2.47
2022-11-25T12:32:49.301Z,2.80
2022-11-25T12:35:22.572Z,2.47
2022-11-25T12:37:52.926Z,2.65
2022-11-25T12:40:19.275Z,2.90
2022-11-25T12:42:46.524Z,3.60
2022-11-25T12:47:39.180Z,2.85
2022-11-25T12:50:05.899Z,2.80
2022-11-25T12:52:36.066Z,3.28
2022-11-25T12:55:08.197Z,2.55
2022-11-25T12:57:37.566Z,2.47
2022-11-25T13:00:40.608Z,2.67
2022-11-25T13:03:30.823Z,2.65
2022-11-25T13:06:16.793Z,2.83
2022-11-25T13:08:59.565Z,2.60
2022-11-25T13:11:26.226Z,2.50
2022-11-25T13:14:08.700Z,2.90
2022-11-25T13:16:35.921Z,2.78
2022-11-25T13:19:08.597Z,2.72
2022-11-25T13:21:34.990Z,2.90
2022-11-25T13:24:01.937Z,2.87
2022-11-25T13:26:28.590Z,2.30
2022-11-25T13:29:15.739Z,2.55
2022-11-25T13:31:58.985Z,3.28
2022-11-25T13:34:33.440Z,2.63
2022-11-25T13:37:01.538Z,2.90
2022-11-25T13:39:31.581Z,2.60
2022-11-25T13:42:02.959Z,3.17
2022-11-25T13:44:36.342Z,2.78
2022-11-25T13:47:21.993Z,2.63
2022-11-25T13:49:51.704Z,2.90
2022-11-25T13:52:18.593Z,2.78
2022-11-25T13:54:55.646Z,3.10
2022-11-25T13:57:27.179Z,2.65
2022-11-25T13:59:56.448Z,2.92
2022-11-25T14:02:29.199Z,3.25
2022-11-25T14:04:55.904Z,3.13
2022-11-25T14:07:35.008Z,3.20
2022-11-25T14:10:20.078Z,2.55
2022-11-25T14:12:59.140Z,2.67
2022-11-25T14:15:26.159Z,2.50
2022-11-25T14:17:52.543Z,3.03
2022-11-25T14:20:22.250Z,2.47
2022-11-25T14:22:55.194Z,2.83
2022-11-25T14:25:30.626Z,2.80
2022-11-25T14:28:03.836Z,3.00
2022-11-25T14:30:31.352Z,2.97
2022-11-25T14:33:01.387Z,2.88
2022-11-25T14:35:35.481Z,2.53
2022-11-25T14:38:09.076Z,2.60
2022-11-25T14:40:41.636Z,2.90
2022-11-25T14:43:12.467Z,2.92
2022-11-25T14:45:39.456Z,2.72
2022-11-25T14:48:18.309Z,2.83
2022-11-25T14:51:14.450Z,2.80
2022-11-25T14:53:48.568Z,2.63
2022-11-25T14:56:16.606Z,2.70
2022-11-25T14:58:47.085Z,3.08
2022-11-25T15:01:18.487Z,2.78
2022-11-25T15:03:48.968Z,2.47
2022-11-25T15:06:16.577Z,2.88
2022-11-25T15:08:44.572Z,2.55
2022-11-25T15:11:20.937Z,2.72
2022-11-25T15:13:59.681Z,3.17
2022-11-25T15:16:32.840Z,2.80
2022-11-25T15:19:00.965Z,3.05
2022-11-25T15:21:32.470Z,2.40
2022-11-25T15:23:59.277Z,3.30
2022-11-25T15:26:28.846Z,3.00
2022-11-25T15:28:57.782Z,3.90
2022-11-25T15:31:32.147Z,3.13
2022-11-25T15:34:00.752Z,3.35
2022-11-25T15:36:27.455Z,2.70
2022-11-25T15:38:54.281Z,2.92
2022-11-25T15:41:31.286Z,3.90
2022-11-25T15:44:01.523Z,3.35
2022-11-25T15:46:28.512Z,3.63
2022-11-25T15:48:58.425Z,3.75
2022-11-25T15:51:31.143Z,3.00
2022-11-25T15:54:00.666Z,3.10
2022-11-25T15:56:27.276Z,3.70
2022-11-25T15:58:57.409Z,3.00
2022-11-25T16:01:28.672Z,3.25
2022-11-25T16:04:09.988Z,3.35
2022-11-25T16:06:36.915Z,2.78
2022-11-25T16:09:04.909Z,2.97
2022-11-25T16:11:45.607Z,2.35
2022-11-25T16:14:18.662Z,2.50
2022-11-25T16:16:46.609Z,2.63
2022-11-25T16:19:15.492Z,2.35
2022-11-25T16:21:43.910Z,2.53
2022-11-25T16:24:27.101Z,2.28
2022-11-25T16:26:56.494Z,2.72
2022-11-25T16:29:44.088Z,3.08
2022-11-25T16:32:14.730Z,2.70
2022-11-25T16:34:41.514Z,3.20
2022-11-25T16:37:08.919Z,3.22
2022-11-25T16:39:37.066Z,2.90
2022-11-25T16:42:04.545Z,3.97
2022-11-25T16:44:33.674Z,4.00
2022-11-25T16:47:01.618Z,3.83
2022-11-25T16:49:30.571Z,3.45
2022-11-25T16:51:57.529Z,3.80
2022-11-25T16:54:23.930Z,3.40
2022-11-25T16:56:52.301Z,3.20
2022-11-25T16:59:21.212Z,3.78
2022-11-25T17:01:47.731Z,3.38
2022-11-25T17:04:15.052Z,2.70
2022-11-25T17:06:42.202Z,2.28
2022-11-25T17:09:09.445Z,2.25
2022-11-25T17:11:47.012Z,1.80
2022-11-25T17:14:18.393Z,2.30
2022-11-25T17:16:45.080Z,2.90
2022-11-25T17:19:17.033Z,3.58
2022-11-25T17:21:44.513Z,3.83
2022-11-25T17:24:13.276Z,3.45
2022-11-25T17:26:42.104Z,3.53
2022-11-25T17:29:13.164Z,2.78
2022-11-25T17:31:40.105Z,2.70
2022-11-25T17:34:06.883Z,2.38
2022-11-25T17:36:33.408Z,2.45
2022-11-25T17:39:00.169Z,2.28
2022-11-25T17:41:28.865Z,2.47
2022-11-25T17:43:56.230Z,2.67
2022-11-25T17:46:24.849Z,2.42
2022-11-25T17:48:51.448Z,2.45
2022-11-25T17:51:17.806Z,2.38
2022-11-25T17:53:44.841Z,2.22
2022-11-25T17:56:11.255Z,2.60
2022-11-25T17:58:37.650Z,2.28
2022-11-25T18:01:04.053Z,2.58
2022-11-25T18:03:30.495Z,2.05
2022-11-25T18:05:56.887Z,1.85
2022-11-25T18:08:23.361Z,2.55
2022-11-25T18:10:49.830Z,2.05
2022-11-25T18:13:16.537Z,1.90
2022-11-25T18:15:44.035Z,2.00
2022-11-25T18:18:21.743Z,2.55
2022-11-25T18:23:15.422Z,2.38
2022-11-25T18:25:42.598Z,1.80
2022-11-25T18:28:12.810Z,1.80
2022-11-25T18:30:39.330Z,1.70
2022-11-25T18:33:06.903Z,1.70
2022-11-25T18:35:36.532Z,2.17
2022-11-25T18:38:03.548Z,2.40
2022-11-25T18:40:30.310Z,2.05
2022-11-25T18:42:57.923Z,1.75
2022-11-25T18:45:26.618Z,1.90
2022-11-25T18:47:53.776Z,1.60
2022-11-25T18:50:24.268Z,1.70
2022-11-25T18:52:51.039Z,1.92
2022-11-25T18:55:18.426Z,1.77
2022-11-25T18:57:45.898Z,2.00
2022-11-25T19:00:32.811Z,2.33
2022-11-25T19:05:29.615Z,2.38
2022-11-25T19:07:57.173Z,2.45
2022-11-25T19:10:25.091Z,2.47
2022-11-25T19:15:20.007Z,2.33
2022-11-25T19:17:48.828Z,2.10
2022-11-25T19:20:17.735Z,2.33
2022-11-25T19:22:45.572Z,2.30
2022-11-25T19:25:12.029Z,2.20
2022-11-25T19:28:04.811Z,2.00
2022-11-25T19:30:32.271Z,1.90
2022-11-25T19:33:00.601Z,2.42
2022-11-25T19:35:30.215Z,2.63
2022-11-25T19:37:57.573Z,2.92
2022-11-25T19:40:25.146Z,2.83
2022-11-25T19:42:51.684Z,2.72
2022-11-25T19:45:19.497Z,2.97
2022-11-25T19:47:47.244Z,3.42
2022-11-25T19:50:21.867Z,3.67
2022-11-25T19:52:49.795Z,3.88
2022-11-25T19:57:43.637Z,4.07
2022-11-25T20:00:11.398Z,4.90
2022-11-25T20:02:38.407Z,5.32
2022-11-25T20:05:05.747Z,5.20
2022-11-25T20:07:33.237Z,5.60
2022-11-25T20:10:15.629Z,5.47
2022-11-25T20:12:42.302Z,4.85
2022-11-25T20:15:09.054Z,4.90
2022-11-25T20:17:37.838Z,5.78
2022-11-25T20:20:13.646Z,6.05
2022-11-25T20:22:43.664Z,7.43
2022-11-25T20:25:13.652Z,7.07
2022-11-25T20:27:40.712Z,6.28
2022-11-25T20:30:14.526Z,6.00
2022-11-25T20:32:41.573Z,4.90
2022-11-25T20:35:08.996Z,5.00
2022-11-25T20:37:50.594Z,4.82
2022-11-25T20:40:21.995Z,4.50
2022-11-25T20:42:49.751Z,4.63
2022-11-25T20:45:17.961Z,3.80
2022-11-25T20:47:44.984Z,4.82
2022-11-25T20:50:15.308Z,4.40
2022-11-25T20:52:43.102Z,4.32
2022-11-25T20:55:30.207Z,4.57
2022-11-25T20:57:56.812Z,4.47
2022-11-25T21:00:27.829Z,4.68
2022-11-25T21:02:55.653Z,4.38
2022-11-25T21:07:49.502Z,4.70
2022-11-25T21:10:20.774Z,4.43
2022-11-25T21:12:47.179Z,4.13
2022-11-25T21:15:18.154Z,4.30
2022-11-25T21:17:44.951Z,4.13
2022-11-25T21:20:11.658Z,4.53
2022-11-25T21:22:41.383Z,4.57
2022-11-25T21:25:11.139Z,4.45
2022-11-25T21:27:37.604Z,4.13
2022-11-25T21:30:04.335Z,4.38
2022-11-25T21:32:30.877Z,4.90
2022-11-25T21:34:58.136Z,5.18
2022-11-25T21:37:43.483Z,4.90
2022-11-25T21:40:28.674Z,6.03
2022-11-25T21:42:55.100Z,5.00
2022-11-25T21:45:22.163Z,5.72
2022-11-25T21:47:48.538Z,4.23
2022-11-25T21:50:16.585Z,4.30
2022-11-25T21:52:43.016Z,4.45
2022-11-25T21:55:17.688Z,4.40
2022-11-25T21:57:44.355Z,4.60
2022-11-25T22:00:20.136Z,4.57
2022-11-25T22:02:46.974Z,3.95
2022-11-25T22:05:14.735Z,4.85
2022-11-25T22:07:44.284Z,5.05
2022-11-25T22:10:12.058Z,4.70
2022-11-25T22:12:41.579Z,4.30
2022-11-25T22:15:16.320Z,4.13
2022-11-25T22:17:42.868Z,4.18
2022-11-25T22:20:28.118Z,4.57
2022-11-25T22:22:54.703Z,4.57
2022-11-25T22:25:21.872Z,4.05
2022-11-25T22:27:48.803Z,3.97
2022-11-25T22:30:17.473Z,3.93
2022-11-25T22:32:45.167Z,3.42
2022-11-25T22:35:18.661Z,3.67
2022-11-25T22:37:48.277Z,3.88
2022-11-25T22:40:17.409Z,4.00
2022-11-25T22:42:45.733Z,3.97
2022-11-25T22:45:38.507Z,3.92
2022-11-25T22:48:05.761Z,4.40
2022-11-25T22:50:33.006Z,3.67
2022-11-25T22:53:01.445Z,3.08
2022-11-25T22:55:32.724Z,3.42
2022-11-25T22:57:59.937Z,3.42
2022-11-25T23:00:31.312Z,2.97
2022-11-25T23:02:58.807Z,3.83
2022-11-25T23:05:33.359Z,3.55
2022-11-25T23:08:01.493Z,3.05
2022-11-25T23:12:54.509Z,3.88
2022-11-25T23:15:21.917Z,4.38
2022-11-25T23:17:55.187Z,3.42
2022-11-25T23:20:24.381Z,3.65
2022-11-25T23:22:50.750Z,3.22
2022-11-25T23:25:18.492Z,3.47
2022-11-25T23:27:45.140Z,3.17
2022-11-25T23:30:15.185Z,3.28
2022-11-25T23:32:43.721Z,3.42
2022-11-25T23:35:14.699Z,3.55
2022-11-25T23:37:42.566Z,3.72
2022-11-25T23:42:35.193Z,4.03
2022-11-25T23:45:01.537Z,3.58
2022-11-25T23:47:27.921Z,4.00
2022-11-25T23:49:56.469Z,4.50
2022-11-25T23:52:24.754Z,3.47
2022-11-25T23:54:52.951Z,4.05
2022-11-25T23:57:19.762Z,3.85
2022-11-25T23:59:46.860Z,3.83
